Página principal
METAR-TAF:

METAR-TAF

Aeroportos :

Aeroporto de Gibraltar

Gibraltar, Gibraltar

latitude: 36-09N, longitude: 005-21W, altura: 5 m

Observação actual do tempo

O boletim foi feito há 17 minutos, às 07:50 UTC
Vento 8 kt de sudoeste
Temperatura 22°C
Humidade 73%
Pressão 1016 hPa
Visibilidade 10 km ou mais
Poucas nuvensa uma altura de 2000 ft

METAR: LXGB 250750Z 23008KT 9999 FEW020 22/17 Q1016 NOSIG

Hora: 10:07 (08:07 UTC)

Previsão

O boletim foi feito há 3 horas e 29 minutos, às 04:38 UTC
Previsão válida de 25 às 06 UTC a 25 às 15 UTC
Vento 10 kt de oeste
Visibilidade 10 km ou mais
Poucas nuvensa uma altura de 1200 ft
Probabilidade 40% :
Temporariamente
de 25 às 08 UTC a 25 às 15 UTC
Vento 14 kt de su-sudoeste

TAF: LXGB 250438Z 2506/2515 28010KT 9999 FEW012 PROB40 TEMPO 2508/2515 21014KT 520001

Observações e previsões do tempo de mais de 4000 aeroportos (mensagens METAR e TAF).

As estações disponíveis são os pontos amarelos e vermelhos sobre o mapa.

Mova o rato sobre o mapa para ver o nome da estação.

Depois clique no ponto para visualizar as observações e previsões meteorológicas.

Para alterar o mapa : clique nos botões verdes com uma cruz preta para aumentar o zoom; no botão verde com uma pitada de zoom; ou nas setas verdes para mapas adjacentes.


METAR-TAF: